createdAt,value
2019-01-26T00:00:26.416Z,0.00
2019-01-26T00:01:26.436Z,0.00
2019-01-26T00:02:26.441Z,0.00
2019-01-26T00:03:26.454Z,0.00
2019-01-26T00:04:26.469Z,0.00
2019-01-26T00:05:26.484Z,0.00
2019-01-26T00:06:26.497Z,0.00
2019-01-26T00:07:26.511Z,0.00
2019-01-26T00:08:26.525Z,0.00
2019-01-26T00:09:26.538Z,0.00
2019-01-26T00:10:26.552Z,0.00
2019-01-26T00:11:26.565Z,0.00
2019-01-26T00:12:26.578Z,0.00
2019-01-26T00:13:26.592Z,0.00
2019-01-26T00:14:26.606Z,0.00
2019-01-26T00:15:26.619Z,0.00
2019-01-26T00:16:26.633Z,0.00
2019-01-26T00:17:26.649Z,0.00
2019-01-26T00:18:26.664Z,0.00
2019-01-26T00:19:26.677Z,0.00
2019-01-26T00:20:26.690Z,0.00
2019-01-26T00:21:26.703Z,0.00
2019-01-26T00:22:26.720Z,0.00
2019-01-26T00:23:26.733Z,0.00
2019-01-26T00:24:26.747Z,0.00
2019-01-26T00:25:26.760Z,0.00
2019-01-26T00:26:26.772Z,0.00
2019-01-26T00:27:26.788Z,0.00
2019-01-26T00:28:26.804Z,0.00
2019-01-26T00:29:26.817Z,0.00
2019-01-26T00:30:26.827Z,0.00
2019-01-26T00:31:26.841Z,0.00
2019-01-26T00:32:26.855Z,0.00
2019-01-26T00:33:26.873Z,0.00
2019-01-26T00:34:26.884Z,0.00
2019-01-26T00:35:26.900Z,0.00
2019-01-26T00:36:26.912Z,0.00
2019-01-26T00:37:26.928Z,5.63
2019-01-26T00:38:26.939Z,5.63
2019-01-26T00:39:26.954Z,0.00
2019-01-26T00:40:26.971Z,0.00
2019-01-26T00:41:26.984Z,0.00
2019-01-26T00:42:26.996Z,0.00
2019-01-26T00:43:27.012Z,0.00
2019-01-26T00:44:27.026Z,0.00
2019-01-26T00:45:27.038Z,0.00
2019-01-26T00:46:28.475Z,0.00
2019-01-26T00:47:27.067Z,0.00
2019-01-26T00:48:27.080Z,0.00
2019-01-26T00:49:27.093Z,0.00
2019-01-26T00:50:27.110Z,0.00
2019-01-26T00:51:27.119Z,0.00
2019-01-26T00:52:27.133Z,0.00
2019-01-26T00:53:27.149Z,0.00
2019-01-26T00:54:27.164Z,5.63
2019-01-26T00:55:27.176Z,5.63
2019-01-26T00:56:27.189Z,5.63
2019-01-26T00:57:27.205Z,5.63
2019-01-26T00:58:27.217Z,5.63
2019-01-26T00:59:27.608Z,5.63
2019-01-26T01:00:27.247Z,5.63
2019-01-26T01:01:27.262Z,5.63
2019-01-26T01:02:27.275Z,5.63
2019-01-26T01:03:27.318Z,5.63
2019-01-26T01:04:27.302Z,5.63
2019-01-26T01:05:27.318Z,5.63
2019-01-26T01:06:27.334Z,5.63
2019-01-26T01:07:27.348Z,5.63
2019-01-26T01:08:27.363Z,5.63
2019-01-26T01:09:27.374Z,5.63
2019-01-26T01:10:27.395Z,5.63
2019-01-26T01:11:27.405Z,11.25
2019-01-26T01:12:27.416Z,11.25
2019-01-26T01:13:27.431Z,11.25
2019-01-26T01:14:27.445Z,11.25
2019-01-26T01:15:27.458Z,11.25
2019-01-26T01:16:27.472Z,11.25
2019-01-26T01:17:27.489Z,11.25
2019-01-26T01:18:27.498Z,11.25
2019-01-26T01:19:27.516Z,11.25
2019-01-26T01:20:27.528Z,11.25
2019-01-26T01:21:27.544Z,11.25
2019-01-26T01:22:27.556Z,11.25
2019-01-26T01:23:27.571Z,11.25
2019-01-26T01:24:27.585Z,11.25
2019-01-26T01:25:27.602Z,11.25
2019-01-26T01:26:27.618Z,11.25
2019-01-26T01:27:27.628Z,11.25
2019-01-26T01:28:27.642Z,11.25
2019-01-26T01:29:27.660Z,11.25
2019-01-26T01:30:27.670Z,11.25
2019-01-26T01:31:27.713Z,11.25
2019-01-26T01:32:27.704Z,11.25
2019-01-26T01:33:27.719Z,11.25
2019-01-26T01:34:27.731Z,11.25
2019-01-26T01:35:27.747Z,11.25
2019-01-26T01:36:27.825Z,11.25
2019-01-26T01:37:27.772Z,11.25
2019-01-26T01:38:27.787Z,11.25
2019-01-26T01:39:27.850Z,11.25
2019-01-26T01:40:27.815Z,11.25
2019-01-26T01:41:27.828Z,11.25
2019-01-26T01:42:27.846Z,11.25
2019-01-26T01:43:27.858Z,11.25
2019-01-26T01:44:27.873Z,11.25
2019-01-26T01:45:27.887Z,11.25
2019-01-26T01:46:27.899Z,11.25
2019-01-26T01:47:27.917Z,11.25
2019-01-26T01:48:27.932Z,11.25
2019-01-26T01:49:27.946Z,11.25
2019-01-26T01:50:27.961Z,11.25
2019-01-26T01:51:27.977Z,11.25
2019-01-26T01:52:28.010Z,11.25
2019-01-26T01:53:28.001Z,11.25
2019-01-26T01:54:28.021Z,11.25
2019-01-26T01:55:28.034Z,5.63
2019-01-26T01:56:28.044Z,11.25
2019-01-26T01:57:28.061Z,11.25
2019-01-26T01:58:28.074Z,11.25
2019-01-26T01:59:28.089Z,11.25
2019-01-26T02:00:28.105Z,11.25
2019-01-26T02:01:28.116Z,11.25
2019-01-26T02:02:28.130Z,11.25
2019-01-26T02:03:28.144Z,11.25
2019-01-26T02:04:28.163Z,11.25
2019-01-26T02:05:28.175Z,11.25
2019-01-26T02:06:28.188Z,11.25
2019-01-26T02:07:28.207Z,5.63
2019-01-26T02:08:28.218Z,5.63
2019-01-26T02:09:28.236Z,5.63
2019-01-26T02:10:28.248Z,5.63
2019-01-26T02:11:28.260Z,5.63
2019-01-26T02:12:28.307Z,5.63
2019-01-26T02:13:28.287Z,5.63
2019-01-26T02:14:28.308Z,5.63
2019-01-26T02:15:28.318Z,5.63
2019-01-26T02:16:28.330Z,5.63
2019-01-26T02:17:28.348Z,5.63
2019-01-26T02:18:28.359Z,5.63
2019-01-26T02:19:28.374Z,5.63
2019-01-26T02:20:28.391Z,5.63
2019-01-26T02:21:28.405Z,5.63
2019-01-26T02:22:28.416Z,5.63
2019-01-26T02:23:28.432Z,5.63
2019-01-26T02:24:28.453Z,5.63
2019-01-26T02:25:28.464Z,5.63
2019-01-26T02:26:28.475Z,5.63
2019-01-26T02:27:28.493Z,5.63
2019-01-26T02:28:28.607Z,5.63
2019-01-26T02:29:28.518Z,5.63
2019-01-26T02:30:28.536Z,5.63
2019-01-26T02:31:28.546Z,5.63
2019-01-26T02:32:28.568Z,5.63
2019-01-26T02:33:28.581Z,5.63
2019-01-26T02:34:28.589Z,5.63
2019-01-26T02:35:28.605Z,5.63
2019-01-26T02:36:28.629Z,5.63
2019-01-26T02:37:28.634Z,5.63
2019-01-26T02:38:28.650Z,5.63
2019-01-26T02:39:28.662Z,5.63
2019-01-26T02:40:28.677Z,5.63
2019-01-26T02:41:28.694Z,5.63
2019-01-26T02:42:28.708Z,5.63
2019-01-26T02:43:28.722Z,5.63
2019-01-26T02:44:28.746Z,5.63
2019-01-26T02:45:28.775Z,5.63
2019-01-26T02:46:28.778Z,5.63
2019-01-26T02:47:28.782Z,5.63
2019-01-26T02:48:28.794Z,5.63
2019-01-26T02:49:28.807Z,5.63
2019-01-26T02:50:28.824Z,5.63
2019-01-26T02:51:28.836Z,5.63
2019-01-26T02:52:28.849Z,5.63
2019-01-26T02:53:28.866Z,5.63
2019-01-26T02:54:28.877Z,5.63
2019-01-26T02:55:28.894Z,5.63
2019-01-26T02:56:28.906Z,5.63
2019-01-26T02:57:28.921Z,5.63
2019-01-26T02:58:28.938Z,5.63
2019-01-26T02:59:28.956Z,5.63
2019-01-26T03:00:28.966Z,5.63
2019-01-26T03:01:28.979Z,5.63
2019-01-26T03:02:28.995Z,5.63
2019-01-26T03:03:29.008Z,5.63
2019-01-26T03:04:29.026Z,5.63
2019-01-26T03:05:29.038Z,5.63
2019-01-26T03:06:29.050Z,5.63
2019-01-26T03:07:29.069Z,11.25
2019-01-26T03:08:29.079Z,11.25
2019-01-26T03:09:29.096Z,11.25
2019-01-26T03:10:29.112Z,11.25
2019-01-26T03:11:29.129Z,5.63
2019-01-26T03:12:29.143Z,11.25
2019-01-26T03:13:29.156Z,11.25
2019-01-26T03:14:29.175Z,11.25
2019-01-26T03:15:29.182Z,11.25
2019-01-26T03:16:29.197Z,11.25
2019-01-26T03:17:29.209Z,11.25
2019-01-26T03:18:29.227Z,11.25
2019-01-26T03:19:29.238Z,11.25
2019-01-26T03:20:29.254Z,11.25
2019-01-26T03:21:29.276Z,11.25
2019-01-26T03:22:29.282Z,11.25
2019-01-26T03:23:29.296Z,11.25
2019-01-26T03:24:29.312Z,11.25
2019-01-26T03:25:29.325Z,11.25
2019-01-26T03:26:29.342Z,11.25
2019-01-26T03:27:29.354Z,16.88
2019-01-26T03:28:29.369Z,16.88
2019-01-26T03:29:29.394Z,16.88
2019-01-26T03:30:29.398Z,16.88
2019-01-26T03:31:29.413Z,16.88
2019-01-26T03:32:29.436Z,16.88
2019-01-26T03:33:29.441Z,22.50
2019-01-26T03:34:29.454Z,22.50
2019-01-26T03:35:29.471Z,22.50
2019-01-26T03:36:29.483Z,22.50
2019-01-26T03:37:29.498Z,22.50
2019-01-26T03:38:29.512Z,22.50
2019-01-26T03:39:29.538Z,22.50
2019-01-26T03:40:29.542Z,22.50
2019-01-26T03:41:29.594Z,22.50
2019-01-26T03:42:29.572Z,22.50
2019-01-26T03:43:29.587Z,22.50
2019-01-26T03:44:29.603Z,22.50
2019-01-26T03:45:29.614Z,22.50
2019-01-26T03:46:29.628Z,22.50
2019-01-26T03:47:29.642Z,22.50
2019-01-26T03:48:29.659Z,22.50
2019-01-26T03:49:29.672Z,22.50
2019-01-26T03:50:29.688Z,28.13
2019-01-26T03:51:29.705Z,28.13
2019-01-26T03:52:29.716Z,22.50
2019-01-26T03:53:29.743Z,28.13
2019-01-26T03:54:29.750Z,28.13
2019-01-26T03:55:29.764Z,22.50
2019-01-26T03:56:29.773Z,22.50
2019-01-26T03:57:29.790Z,22.50
2019-01-26T03:58:29.805Z,22.50
2019-01-26T03:59:29.821Z,22.50
2019-01-26T04:00:29.832Z,22.50
2019-01-26T04:01:29.848Z,28.13
2019-01-26T04:02:29.861Z,28.13
2019-01-26T04:03:29.877Z,28.13
2019-01-26T04:04:29.895Z,33.75
2019-01-26T04:05:29.908Z,33.75
2019-01-26T04:06:29.920Z,33.75
2019-01-26T04:07:29.934Z,33.75
2019-01-26T04:08:29.953Z,28.13
2019-01-26T04:09:29.966Z,28.13
2019-01-26T04:10:29.980Z,28.13
2019-01-26T04:11:29.997Z,28.13
2019-01-26T04:12:30.009Z,28.13
2019-01-26T04:13:30.025Z,28.13
2019-01-26T04:14:30.038Z,28.13
2019-01-26T04:15:30.052Z,22.50
2019-01-26T04:16:30.069Z,22.50
2019-01-26T04:17:30.089Z,22.50
2019-01-26T04:18:30.097Z,22.50
2019-01-26T04:19:30.113Z,22.50
2019-01-26T04:20:30.129Z,22.50
2019-01-26T04:21:30.142Z,22.50
2019-01-26T04:22:30.161Z,22.50
2019-01-26T04:23:30.172Z,22.50
2019-01-26T04:24:30.188Z,22.50
2019-01-26T04:25:30.202Z,22.50
2019-01-26T04:26:30.218Z,22.50
2019-01-26T04:27:30.235Z,22.50
2019-01-26T04:28:30.247Z,22.50
2019-01-26T04:29:30.262Z,22.50
2019-01-26T04:30:30.277Z,22.50
2019-01-26T04:31:30.291Z,22.50
2019-01-26T04:32:30.306Z,28.13
2019-01-26T04:33:30.325Z,28.13
2019-01-26T04:34:30.335Z,28.13
2019-01-26T04:35:30.350Z,28.13
2019-01-26T04:36:30.367Z,28.13
2019-01-26T04:37:30.385Z,28.13
2019-01-26T04:38:30.394Z,28.13
2019-01-26T04:39:30.521Z,28.13
2019-01-26T04:40:30.423Z,28.13
2019-01-26T04:41:30.439Z,28.13
2019-01-26T04:42:30.455Z,28.13
2019-01-26T04:43:30.470Z,28.13
2019-01-26T04:44:30.483Z,28.13
2019-01-26T04:45:30.503Z,28.13
2019-01-26T04:46:30.512Z,22.50
2019-01-26T04:47:31.293Z,22.50
2019-01-26T04:48:30.545Z,22.50
2019-01-26T04:49:30.563Z,22.50
2019-01-26T04:50:30.574Z,22.50
2019-01-26T04:51:30.585Z,22.50
2019-01-26T04:52:30.604Z,22.50
2019-01-26T04:53:30.620Z,22.50
2019-01-26T04:54:30.649Z,22.50
2019-01-26T04:55:30.648Z,22.50
2019-01-26T04:56:30.667Z,16.88
2019-01-26T04:57:30.680Z,16.88
2019-01-26T04:58:30.692Z,16.88
2019-01-26T04:59:30.706Z,16.88
2019-01-26T05:00:30.724Z,16.88
2019-01-26T05:01:30.739Z,16.88
2019-01-26T05:02:30.751Z,16.88
2019-01-26T05:03:30.770Z,16.88
2019-01-26T05:04:30.781Z,16.88
2019-01-26T05:05:30.794Z,16.88
2019-01-26T05:06:30.808Z,16.88
2019-01-26T05:07:30.827Z,22.50
2019-01-26T05:08:30.846Z,22.50
2019-01-26T05:09:30.866Z,22.50
2019-01-26T05:10:30.869Z,22.50
2019-01-26T05:11:30.894Z,22.50
2019-01-26T05:12:30.901Z,22.50
2019-01-26T05:13:30.913Z,22.50
2019-01-26T05:14:30.961Z,28.13
2019-01-26T05:15:30.943Z,28.13
2019-01-26T05:16:30.958Z,28.13
2019-01-26T05:17:39.021Z,28.13
2019-01-26T05:18:30.987Z,28.13
2019-01-26T05:19:31.004Z,28.13
2019-01-26T05:20:31.019Z,33.75
2019-01-26T05:21:31.036Z,33.75
2019-01-26T05:22:31.049Z,33.75
2019-01-26T05:23:31.065Z,33.75
2019-01-26T05:24:31.078Z,33.75
2019-01-26T05:25:31.092Z,33.75
2019-01-26T05:26:31.107Z,33.75
2019-01-26T05:27:31.120Z,39.38
2019-01-26T05:28:31.137Z,39.38
2019-01-26T05:29:31.150Z,39.38
2019-01-26T05:30:31.169Z,39.38
2019-01-26T05:31:31.183Z,39.38
2019-01-26T05:32:31.198Z,39.38
2019-01-26T05:33:31.215Z,39.38
2019-01-26T05:34:31.227Z,45.00
2019-01-26T05:35:31.241Z,45.00
2019-01-26T05:36:31.256Z,45.00
2019-01-26T05:37:31.271Z,45.00
2019-01-26T05:38:31.288Z,45.00
2019-01-26T05:39:31.301Z,45.00
2019-01-26T05:40:31.319Z,45.00
2019-01-26T05:41:31.336Z,45.00
2019-01-26T05:42:31.346Z,45.00
2019-01-26T05:43:31.362Z,45.00
2019-01-26T05:44:31.378Z,45.00
2019-01-26T05:45:31.392Z,45.00
2019-01-26T05:46:31.408Z,45.00
2019-01-26T05:47:31.424Z,45.00
2019-01-26T05:48:31.438Z,45.00
2019-01-26T05:49:31.456Z,45.00
2019-01-26T05:50:31.471Z,45.00
2019-01-26T05:51:31.489Z,45.00
2019-01-26T05:52:31.501Z,45.00
2019-01-26T05:53:31.519Z,45.00
2019-01-26T05:54:31.538Z,45.00
2019-01-26T05:55:31.545Z,45.00
2019-01-26T05:56:31.563Z,45.00
2019-01-26T05:57:31.582Z,45.00
2019-01-26T05:58:31.595Z,45.00
2019-01-26T05:59:31.609Z,45.00
2019-01-26T06:00:31.641Z,45.00
2019-01-26T06:01:31.640Z,45.00
2019-01-26T06:02:31.718Z,45.00
2019-01-26T06:03:31.670Z,45.00
2019-01-26T06:04:31.706Z,45.00
2019-01-26T06:05:31.700Z,45.00
2019-01-26T06:06:31.716Z,45.00
2019-01-26T06:07:31.737Z,45.00
2019-01-26T06:08:31.747Z,45.00
2019-01-26T06:09:31.765Z,39.38
2019-01-26T06:10:31.780Z,39.38
2019-01-26T06:11:31.794Z,33.75
2019-01-26T06:12:31.812Z,33.75
2019-01-26T06:13:31.827Z,28.13
2019-01-26T06:14:31.843Z,28.13
2019-01-26T06:15:31.859Z,28.13
2019-01-26T06:16:31.935Z,28.13
2019-01-26T06:17:32.006Z,28.13
2019-01-26T06:18:31.914Z,28.13
2019-01-26T06:19:31.920Z,28.13
2019-01-26T06:20:31.932Z,28.13
2019-01-26T06:21:31.948Z,28.13
2019-01-26T06:22:31.964Z,28.13
2019-01-26T06:23:31.980Z,28.13
2019-01-26T06:24:31.996Z,33.75
2019-01-26T06:25:32.012Z,33.75
2019-01-26T06:26:32.032Z,33.75
2019-01-26T06:27:32.042Z,33.75
2019-01-26T06:28:32.057Z,33.75
2019-01-26T06:29:32.076Z,33.75
2019-01-26T06:30:32.087Z,33.75
2019-01-26T06:31:32.105Z,33.75
2019-01-26T06:32:32.119Z,28.13
2019-01-26T06:33:32.139Z,28.13
2019-01-26T06:34:32.155Z,28.13
2019-01-26T06:35:32.168Z,28.13
2019-01-26T06:36:32.183Z,28.13
2019-01-26T06:37:32.199Z,33.75
2019-01-26T06:38:32.217Z,33.75
2019-01-26T06:39:32.231Z,33.75
2019-01-26T06:40:32.243Z,33.75
2019-01-26T06:41:32.260Z,33.75
2019-01-26T06:42:32.273Z,39.38
2019-01-26T06:43:32.288Z,39.38
2019-01-26T06:44:32.304Z,39.38
2019-01-26T06:45:32.393Z,39.38
2019-01-26T06:46:32.375Z,39.38
2019-01-26T06:47:32.350Z,39.38
2019-01-26T06:48:32.365Z,39.38
2019-01-26T06:49:32.384Z,39.38
2019-01-26T06:50:32.399Z,39.38
2019-01-26T06:51:32.410Z,39.38
2019-01-26T06:52:32.429Z,39.38
2019-01-26T06:53:32.446Z,39.38
2019-01-26T06:54:32.459Z,39.38
2019-01-26T06:55:32.473Z,39.38
2019-01-26T06:56:32.536Z,39.38
2019-01-26T06:57:32.505Z,45.00
2019-01-26T06:58:32.519Z,45.00
2019-01-26T06:59:32.535Z,45.00
2019-01-26T07:00:32.552Z,50.63
2019-01-26T07:01:32.566Z,50.63
2019-01-26T07:02:32.585Z,50.63
2019-01-26T07:03:32.597Z,50.63
2019-01-26T07:04:32.614Z,45.00
2019-01-26T07:05:32.628Z,39.38
2019-01-26T07:06:32.645Z,39.38
2019-01-26T07:07:32.659Z,45.00
2019-01-26T07:08:32.679Z,50.63
2019-01-26T07:09:32.690Z,50.63
2019-01-26T07:10:32.710Z,45.00
2019-01-26T07:11:32.722Z,45.00
2019-01-26T07:12:32.737Z,45.00
2019-01-26T07:13:32.807Z,45.00
2019-01-26T07:14:32.769Z,45.00
2019-01-26T07:15:32.785Z,45.00
2019-01-26T07:16:32.811Z,45.00
2019-01-26T07:17:32.817Z,39.38
2019-01-26T07:18:32.834Z,39.38
2019-01-26T07:19:32.846Z,39.38
2019-01-26T07:20:32.874Z,39.38
2019-01-26T07:21:32.879Z,45.00
2019-01-26T07:22:32.893Z,45.00
2019-01-26T07:23:32.909Z,45.00
2019-01-26T07:24:32.928Z,45.00
2019-01-26T07:25:32.941Z,45.00
2019-01-26T07:26:33.955Z,45.00
2019-01-26T07:27:32.971Z,45.00
2019-01-26T07:28:32.988Z,45.00
2019-01-26T07:29:33.003Z,45.00
2019-01-26T07:30:33.021Z,45.00
2019-01-26T07:31:33.035Z,50.63
2019-01-26T07:32:33.050Z,50.63
2019-01-26T07:33:33.071Z,50.63
2019-01-26T07:34:33.080Z,50.63
2019-01-26T07:35:33.099Z,50.63
2019-01-26T07:36:33.118Z,50.63
2019-01-26T07:37:33.131Z,50.63
2019-01-26T07:38:33.143Z,56.25
2019-01-26T07:39:33.158Z,50.63
2019-01-26T07:40:33.174Z,50.63
2019-01-26T07:41:33.191Z,50.63
2019-01-26T07:42:33.206Z,50.63
2019-01-26T07:43:33.224Z,50.63
2019-01-26T07:44:33.238Z,50.63
2019-01-26T07:45:33.255Z,45.00
2019-01-26T07:46:33.270Z,45.00
2019-01-26T07:47:33.286Z,45.00
2019-01-26T07:48:33.302Z,45.00
2019-01-26T07:49:33.318Z,39.38
2019-01-26T07:50:33.333Z,39.38
2019-01-26T07:51:33.349Z,39.38
2019-01-26T07:52:33.364Z,39.38
2019-01-26T07:53:33.388Z,39.38
2019-01-26T07:54:33.395Z,39.38
2019-01-26T07:55:33.412Z,33.75
2019-01-26T07:56:33.428Z,33.75
2019-01-26T07:57:33.443Z,33.75
2019-01-26T07:58:33.458Z,33.75
2019-01-26T07:59:33.537Z,33.75
2019-01-26T08:00:33.490Z,33.75
2019-01-26T08:01:33.507Z,33.75
2019-01-26T08:02:33.522Z,33.75
2019-01-26T08:03:33.539Z,33.75
2019-01-26T08:04:33.554Z,33.75
2019-01-26T08:05:33.571Z,33.75
2019-01-26T08:06:33.586Z,33.75
2019-01-26T08:07:33.602Z,33.75
2019-01-26T08:08:33.619Z,33.75
2019-01-26T08:09:33.634Z,33.75
2019-01-26T08:10:33.653Z,33.75
2019-01-26T08:11:33.669Z,33.75
2019-01-26T08:12:33.687Z,33.75
2019-01-26T08:13:33.700Z,33.75
2019-01-26T08:14:33.712Z,33.75
2019-01-26T08:15:33.730Z,33.75
2019-01-26T08:16:33.745Z,33.75
2019-01-26T08:17:33.761Z,33.75
2019-01-26T08:18:33.779Z,33.75
2019-01-26T08:19:33.791Z,33.75
2019-01-26T08:20:33.809Z,39.38
2019-01-26T08:21:33.828Z,33.75
2019-01-26T08:22:33.839Z,33.75
2019-01-26T08:23:33.863Z,33.75
2019-01-26T08:24:33.875Z,33.75
2019-01-26T08:25:33.888Z,33.75
2019-01-26T08:26:33.907Z,33.75
2019-01-26T08:27:33.920Z,33.75
2019-01-26T08:28:33.937Z,33.75
2019-01-26T08:29:33.956Z,33.75
2019-01-26T08:30:33.966Z,39.38
2019-01-26T08:31:33.984Z,39.38
2019-01-26T08:32:34.001Z,39.38
2019-01-26T08:33:34.020Z,39.38
2019-01-26T08:34:34.037Z,39.38
2019-01-26T08:35:34.051Z,39.38
2019-01-26T08:36:34.064Z,39.38
2019-01-26T08:37:34.082Z,39.38
2019-01-26T08:38:34.095Z,39.38
2019-01-26T08:39:34.111Z,33.75
2019-01-26T08:40:34.127Z,33.75
2019-01-26T08:41:34.146Z,33.75
2019-01-26T08:42:34.160Z,33.75
2019-01-26T08:43:34.176Z,33.75
2019-01-26T08:44:34.193Z,33.75
2019-01-26T08:45:34.211Z,33.75
2019-01-26T08:46:34.232Z,33.75
2019-01-26T08:47:34.239Z,33.75
2019-01-26T08:48:34.258Z,33.75
2019-01-26T08:49:34.273Z,33.75
2019-01-26T08:50:34.288Z,33.75
2019-01-26T08:51:34.304Z,33.75
2019-01-26T08:52:34.320Z,33.75
2019-01-26T08:53:34.336Z,33.75
2019-01-26T08:54:34.353Z,33.75
2019-01-26T08:55:34.367Z,28.13
2019-01-26T08:56:34.385Z,28.13
2019-01-26T08:57:34.402Z,28.13
2019-01-26T08:58:34.417Z,28.13
2019-01-26T08:59:34.433Z,28.13
2019-01-26T09:00:34.447Z,28.13
2019-01-26T09:01:34.469Z,28.13
2019-01-26T09:02:34.478Z,28.13
2019-01-26T09:03:34.494Z,28.13
2019-01-26T09:04:34.513Z,28.13
2019-01-26T09:05:34.535Z,28.13
2019-01-26T09:06:34.549Z,28.13
2019-01-26T09:07:34.563Z,28.13
2019-01-26T09:08:34.576Z,28.13
2019-01-26T09:09:34.590Z,28.13
2019-01-26T09:10:34.607Z,28.13
2019-01-26T09:11:34.622Z,22.50
2019-01-26T09:12:34.637Z,22.50
2019-01-26T09:13:34.654Z,22.50
2019-01-26T09:14:34.671Z,22.50
2019-01-26T09:15:34.708Z,22.50
2019-01-26T09:16:34.701Z,22.50
2019-01-26T09:17:34.719Z,16.88
2019-01-26T09:18:38.736Z,16.88
2019-01-26T09:19:34.748Z,16.88
2019-01-26T09:20:34.766Z,16.88
2019-01-26T09:21:34.783Z,16.88
2019-01-26T09:22:34.796Z,16.88
2019-01-26T09:23:34.813Z,16.88
2019-01-26T09:24:34.830Z,16.88
2019-01-26T09:25:34.845Z,16.88
2019-01-26T09:26:34.862Z,16.88
2019-01-26T09:27:34.877Z,16.88
2019-01-26T09:28:34.894Z,16.88
2019-01-26T09:29:34.906Z,16.88
2019-01-26T09:30:34.921Z,16.88
2019-01-26T09:31:34.943Z,11.25
2019-01-26T09:32:34.954Z,11.25
2019-01-26T09:33:34.970Z,11.25
2019-01-26T09:34:34.987Z,11.25
2019-01-26T09:35:35.000Z,11.25
2019-01-26T09:36:35.017Z,11.25
2019-01-26T09:37:35.034Z,11.25
2019-01-26T09:38:35.048Z,11.25
2019-01-26T09:39:35.065Z,11.25
2019-01-26T09:40:35.080Z,11.25
2019-01-26T09:41:35.095Z,11.25
2019-01-26T09:42:35.109Z,11.25
2019-01-26T09:43:35.126Z,5.63
2019-01-26T09:44:35.141Z,5.63
2019-01-26T09:45:35.157Z,5.63
2019-01-26T09:46:35.173Z,5.63
2019-01-26T09:47:35.189Z,5.63
2019-01-26T09:48:35.209Z,5.63
2019-01-26T09:49:35.220Z,5.63
2019-01-26T09:50:35.237Z,5.63
2019-01-26T09:51:35.252Z,5.63
2019-01-26T09:52:35.268Z,5.63
2019-01-26T09:53:35.283Z,5.63
2019-01-26T09:54:35.296Z,5.63
2019-01-26T09:55:35.313Z,5.63
2019-01-26T09:56:35.328Z,5.63
2019-01-26T09:57:35.344Z,5.63
2019-01-26T09:58:35.358Z,5.63
2019-01-26T09:59:35.385Z,5.63
2019-01-26T10:00:35.401Z,5.63
2019-01-26T10:01:35.409Z,5.63
2019-01-26T10:02:35.422Z,5.63
2019-01-26T10:03:35.439Z,5.63
2019-01-26T10:04:35.453Z,0.00
2019-01-26T10:05:35.467Z,0.00
2019-01-26T10:06:35.482Z,0.00
2019-01-26T10:07:35.502Z,0.00
2019-01-26T10:08:35.517Z,0.00
2019-01-26T10:09:35.531Z,0.00
2019-01-26T10:10:35.546Z,0.00
2019-01-26T10:11:35.558Z,0.00
2019-01-26T10:12:35.576Z,0.00
2019-01-26T10:13:35.592Z,0.00
2019-01-26T10:14:35.606Z,0.00
2019-01-26T10:15:35.625Z,0.00
2019-01-26T10:16:35.637Z,0.00
2019-01-26T10:17:35.660Z,0.00
2019-01-26T10:18:35.673Z,0.00
2019-01-26T10:19:35.686Z,0.00
2019-01-26T10:20:35.702Z,0.00
2019-01-26T10:21:35.713Z,0.00
2019-01-26T10:22:35.727Z,0.00
2019-01-26T10:23:35.743Z,0.00
2019-01-26T10:24:35.765Z,0.00
2019-01-26T10:25:35.777Z,0.00
2019-01-26T10:26:35.791Z,0.00
2019-01-26T10:27:35.815Z,0.00
2019-01-26T10:28:35.821Z,0.00
2019-01-26T10:29:35.838Z,0.00
2019-01-26T10:30:35.862Z,0.00
2019-01-26T10:31:35.867Z,0.00
2019-01-26T10:32:35.886Z,0.00
2019-01-26T10:33:35.896Z,0.00
2019-01-26T10:34:35.931Z,0.00
2019-01-26T10:35:35.933Z,0.00
2019-01-26T10:36:35.988Z,0.00
2019-01-26T10:37:35.957Z,0.00
2019-01-26T10:38:35.971Z,0.00
2019-01-26T10:39:35.988Z,0.00
2019-01-26T10:40:36.001Z,0.00
2019-01-26T10:41:36.016Z,0.00
2019-01-26T10:42:36.034Z,0.00
2019-01-26T10:43:36.047Z,0.00
2019-01-26T10:44:36.062Z,0.00
2019-01-26T10:45:36.084Z,0.00
2019-01-26T10:46:36.092Z,0.00
2019-01-26T10:47:36.157Z,0.00
2019-01-26T10:48:36.121Z,0.00
2019-01-26T10:49:36.141Z,0.00
2019-01-26T10:50:36.153Z,0.00
2019-01-26T10:51:36.170Z,0.00
2019-01-26T10:52:36.183Z,0.00
2019-01-26T10:53:36.199Z,0.00
2019-01-26T10:54:36.212Z,0.00
2019-01-26T10:55:36.233Z,0.00
2019-01-26T10:56:36.243Z,0.00
2019-01-26T10:57:36.259Z,0.00
2019-01-26T10:58:36.279Z,0.00
2019-01-26T10:59:36.289Z,0.00
2019-01-26T11:00:36.304Z,0.00
2019-01-26T11:01:36.318Z,0.00
2019-01-26T11:02:36.369Z,0.00
2019-01-26T11:03:36.349Z,0.00
2019-01-26T11:04:36.363Z,0.00
2019-01-26T11:05:36.383Z,0.00
2019-01-26T11:06:36.395Z,0.00
2019-01-26T11:07:36.408Z,0.00
2019-01-26T11:08:36.422Z,0.00
2019-01-26T11:09:36.444Z,0.00
2019-01-26T11:10:36.452Z,0.00
2019-01-26T11:11:36.471Z,0.00
2019-01-26T11:12:36.485Z,0.00
2019-01-26T11:13:36.502Z,0.00
2019-01-26T11:14:36.525Z,0.00
2019-01-26T11:15:36.535Z,0.00
2019-01-26T11:16:36.544Z,0.00
2019-01-26T11:17:36.561Z,0.00
2019-01-26T11:18:36.571Z,0.00
2019-01-26T11:19:36.588Z,0.00
2019-01-26T11:20:36.603Z,0.00
2019-01-26T11:21:36.642Z,0.00
2019-01-26T11:22:36.630Z,0.00
2019-01-26T11:23:36.649Z,0.00
2019-01-26T11:24:36.662Z,0.00
2019-01-26T11:25:36.684Z,0.00
2019-01-26T11:26:36.690Z,0.00
2019-01-26T11:27:37.590Z,0.00
2019-01-26T11:28:36.740Z,0.00
2019-01-26T11:29:36.735Z,0.00
2019-01-26T11:30:36.754Z,0.00
2019-01-26T11:31:36.771Z,0.00
2019-01-26T11:32:36.779Z,0.00
2019-01-26T11:33:36.796Z,0.00
2019-01-26T11:34:37.372Z,0.00
2019-01-26T11:35:37.370Z,0.00
2019-01-26T11:36:36.840Z,0.00
2019-01-26T11:37:36.855Z,0.00
2019-01-26T11:38:36.866Z,0.00
2019-01-26T11:39:36.883Z,0.00
2019-01-26T11:40:36.901Z,0.00
2019-01-26T11:41:36.911Z,0.00
2019-01-26T11:42:36.928Z,0.00
2019-01-26T11:43:36.982Z,0.00
2019-01-26T11:44:36.957Z,0.00
2019-01-26T11:45:36.972Z,0.00
2019-01-26T11:46:36.989Z,0.00
2019-01-26T11:47:37.001Z,0.00
2019-01-26T11:48:37.026Z,0.00
2019-01-26T11:49:37.031Z,0.00
2019-01-26T11:50:37.044Z,0.00
2019-01-26T11:51:37.068Z,0.00
2019-01-26T11:52:37.078Z,0.00
2019-01-26T11:53:37.344Z,0.00
2019-01-26T11:54:38.078Z,0.00
2019-01-26T11:55:37.195Z,0.00
2019-01-26T11:56:37.133Z,0.00
2019-01-26T11:57:37.148Z,0.00
2019-01-26T11:58:37.177Z,0.00
2019-01-26T11:59:37.178Z,0.00
2019-01-26T12:00:38.455Z,0.00
2019-01-26T12:01:37.208Z,0.00
2019-01-26T12:02:37.221Z,0.00
2019-01-26T12:03:37.237Z,0.00
2019-01-26T12:04:37.254Z,0.00
2019-01-26T12:05:37.266Z,0.00
2019-01-26T12:06:37.282Z,0.00
2019-01-26T12:07:37.299Z,0.00
2019-01-26T12:08:37.312Z,0.00
2019-01-26T12:09:37.345Z,0.00
2019-01-26T12:10:37.344Z,0.00
2019-01-26T12:11:37.354Z,0.00
2019-01-26T12:12:37.369Z,0.00
2019-01-26T12:13:37.386Z,0.00
2019-01-26T12:14:37.398Z,0.00
2019-01-26T12:15:37.416Z,0.00
2019-01-26T12:16:37.443Z,0.00
2019-01-26T12:17:37.444Z,0.00
2019-01-26T12:18:37.456Z,0.00
2019-01-26T12:19:37.472Z,0.00
2019-01-26T12:20:37.487Z,0.00
2019-01-26T12:21:37.512Z,0.00
2019-01-26T12:22:37.517Z,0.00
2019-01-26T12:23:37.555Z,0.00
2019-01-26T12:24:37.549Z,0.00
2019-01-26T12:25:37.561Z,0.00
2019-01-26T12:26:37.576Z,0.00
2019-01-26T12:27:37.593Z,0.00
2019-01-26T12:28:37.605Z,0.00
2019-01-26T12:29:37.620Z,0.00
2019-01-26T12:30:37.635Z,0.00
2019-01-26T12:31:37.650Z,0.00
2019-01-26T12:32:37.668Z,0.00
2019-01-26T12:33:37.687Z,0.00
2019-01-26T12:34:37.690Z,0.00
2019-01-26T12:35:37.705Z,0.00
2019-01-26T12:36:37.723Z,0.00
2019-01-26T12:37:39.274Z,0.00
2019-01-26T12:38:37.761Z,0.00
2019-01-26T12:39:37.765Z,0.00
2019-01-26T12:40:37.780Z,0.00
2019-01-26T12:41:38.455Z,0.00
2019-01-26T12:42:37.808Z,0.00
2019-01-26T12:43:37.824Z,0.00
2019-01-26T12:44:37.845Z,0.00
2019-01-26T12:45:37.854Z,0.00
2019-01-26T12:46:37.872Z,0.00
2019-01-26T12:47:37.884Z,0.00
2019-01-26T12:48:37.896Z,0.00
2019-01-26T12:49:37.914Z,0.00
2019-01-26T12:50:37.931Z,0.00
2019-01-26T12:51:37.941Z,0.00
2019-01-26T12:52:37.955Z,0.00
2019-01-26T12:53:37.973Z,0.00
2019-01-26T12:54:37.984Z,0.00
2019-01-26T12:55:38.002Z,0.00
2019-01-26T12:56:38.016Z,0.00
2019-01-26T12:57:38.030Z,0.00
2019-01-26T12:58:38.059Z,0.00
2019-01-26T12:59:38.076Z,0.00
2019-01-26T13:00:38.074Z,0.00
2019-01-26T13:01:38.108Z,0.00
2019-01-26T13:02:38.108Z,0.00
2019-01-26T13:03:38.127Z,0.00